Time;durP1;ratioP1;P1;durP2;ratioP2;P2;SDS_P1;SDS_P2;PMS_P1;PMS_P2;Temp;Humidity;BMP_temperature;BMP_pressure;BME280_temperature;BME280_humidity;BME280_pressure;Samples;Min_cycle;Max_cycle;Signal;HPM_P1;HPM_P2
2021/12/13 00:00:10;;;;;;;2.62;2.15;;;;;;;5.17;83.82;101399.72;1669175;85;25904;-59
2021/12/13 00:03:08;;;;;;;6.37;3.33;;;;;;;5.19;84.13;101400.50;1643578;85;26023;-59
2021/12/13 00:05:49;;;;;;;3.15;2.83;;;;;;;5.19;84.21;101407.17;1671264;83;25961;-59
2021/12/13 00:08:28;;;;;;;2.30;2.10;;;;;;;5.14;83.92;101406.58;1668366;84;25803;-59
2021/12/13 00:11:03;;;;;;;2.80;2.20;;;;;;;5.15;83.96;101421.15;1670736;85;25786;-59
2021/12/13 00:13:43;;;;;;;4.05;2.77;;;;;;;5.10;83.79;101426.34;1677305;84;25860;-59
2021/12/13 00:16:12;;;;;;;3.33;2.25;;;;;;;5.08;83.73;101423.77;1674401;83;28264;-59
2021/12/13 00:18:44;;;;;;;3.05;2.65;;;;;;;5.04;83.42;101427.54;1659660;85;25814;-58
2021/12/13 00:21:23;;;;;;;3.10;2.15;;;;;;;4.95;83.25;101430.70;1650756;85;25914;-58
2021/12/13 00:23:59;;;;;;;3.12;2.40;;;;;;;4.95;83.72;101442.25;1643727;85;26425;-59
2021/12/13 00:26:37;;;;;;;3.50;2.30;;;;;;;4.91;83.46;101442.50;1662354;85;25769;-60
2021/12/13 00:29:23;;;;;;;2.83;2.52;;;;;;;4.92;83.86;101442.41;1683188;84;27491;-59
2021/12/13 00:32:10;;;;;;;3.62;2.02;;;;;;;4.90;83.41;101442.11;1665874;84;25537;-59
2021/12/13 00:34:48;;;;;;;4.37;2.20;;;;;;;4.78;82.97;101452.97;1658988;86;25755;-60
2021/12/13 00:37:38;;;;;;;7.35;2.10;;;;;;;4.61;82.75;101446.73;1657940;85;26479;-60
2021/12/13 00:40:22;;;;;;;5.08;2.42;;;;;;;4.62;83.56;101447.09;1663315;84;25818;-60
2021/12/13 00:42:58;;;;;;;2.50;2.30;;;;;;;4.64;83.66;101446.55;1622025;88;27484;-59
2021/12/13 00:45:30;;;;;;;3.87;2.25;;;;;;;4.63;83.53;101433.31;1620923;87;25924;-60
2021/12/13 00:48:01;;;;;;;2.27;2.08;;;;;;;4.60;83.69;101441.01;1661457;84;25849;-60
2021/12/13 00:50:42;;;;;;;2.87;2.30;;;;;;;4.60;83.67;101430.80;1632294;87;25880;-59
2021/12/13 00:53:13;;;;;;;3.27;2.20;;;;;;;4.59;83.63;101435.28;1600842;87;26009;-59
2021/12/13 00:55:40;;;;;;;2.67;1.90;;;;;;;4.61;83.86;101428.08;1629787;87;27566;-59
2021/12/13 00:58:15;;;;;;;2.67;1.72;;;;;;;4.64;83.87;101428.38;1658493;84;25804;-59
2021/12/13 01:00:56;;;;;;;2.35;1.87;;;;;;;4.62;83.71;101427.11;1642568;85;26121;-59
2021/12/13 01:03:34;;;;;;;4.05;2.37;;;;;;;4.64;83.62;101428.38;1664293;84;26449;-59
2021/12/13 01:06:57;;;;;;;3.25;2.20;;;;;;;4.65;83.83;101428.28;1659517;85;25930;-59
2021/12/13 01:10:01;;;;;;;2.62;2.30;;;;;;;4.70;83.87;101426.71;1645759;86;27523;-59
2021/12/13 01:12:29;;;;;;;3.15;1.92;;;;;;;4.63;83.36;101425.32;1638537;85;26663;-59
2021/12/13 01:15:28;;;;;;;3.80;1.77;;;;;;;4.55;83.15;101431.05;1681206;84;25891;-59
2021/12/13 01:18:15;;;;;;;2.42;1.80;;;;;;;4.53;83.37;101415.15;1656236;85;25880;-59
2021/12/13 01:20:33;;;;;;;2.33;1.85;;;;;;;4.54;83.33;101410.66;1607561;86;26067;-59
2021/12/13 01:23:05;;;;;;;3.60;2.58;;;;;;;4.54;83.37;101413.33;1655385;85;27665;-59
2021/12/13 01:25:41;;;;;;;2.33;1.92;;;;;;;4.56;83.60;101415.45;1647309;84;25776;-60
2021/12/13 01:28:12;;;;;;;;;;;;;;;4.54;83.65;101407.55;1665912;84;25789;-59
2021/12/13 01:30:48;;;;;;;2.62;2.10;;;;;;;4.51;83.19;101404.19;1647425;85;25958;-59
2021/12/13 01:33:18;;;;;;;3.25;2.40;;;;;;;4.50;83.49;101419.78;1667935;84;25719;-59
2021/12/13 01:35:49;;;;;;;3.30;2.42;;;;;;;4.51;83.51;101410.84;1643180;85;27552;-59
2021/12/13 01:38:21;;;;;;;3.62;1.95;;;;;;;4.55;83.78;101419.05;1624266;85;26410;-59
2021/12/13 01:40:52;;;;;;;2.65;2.10;;;;;;;4.61;83.95;101426.75;1649071;85;25741;-59
2021/12/13 01:43:24;;;;;;;3.20;2.42;;;;;;;4.62;83.63;101427.59;1649105;86;25889;-59
2021/12/13 01:45:53;;;;;;;4.42;3.42;;;;;;;4.54;82.83;101432.86;1652510;85;25903;-59
2021/12/13 01:48:25;;;;;;;3.60;2.62;;;;;;;4.44;82.47;101432.10;1640541;86;28170;-59
2021/12/13 01:51:04;;;;;;;3.72;2.55;;;;;;;4.30;82.37;101427.01;1653543;85;25985;-59
2021/12/13 01:53:36;;;;;;;2.80;2.58;;;;;;;4.17;82.24;101427.27;1665417;85;25848;-59
2021/12/13 01:56:36;;;;;;;4.33;2.70;;;;;;;4.01;82.47;101432.02;1660796;85;25997;-59
2021/12/13 01:58:44;;;;;;;3.62;2.98;;;;;;;3.87;82.86;101439.84;1667768;84;25729;-59
2021/12/13 02:01:18;;;;;;;3.20;2.72;;;;;;;3.76;83.17;101441.23;1685305;84;27448;-59
2021/12/13 02:04:04;;;;;;;5.37;3.10;;;;;;;3.66;83.35;101449.27;1641955;86;25871;-59
2021/12/13 02:06:48;;;;;;;5.28;2.98;;;;;;;3.59;83.65;101450.51;1646258;85;25780;-59
2021/12/13 02:09:23;;;;;;;4.05;2.70;;;;;;;3.47;83.75;101444.44;1612721;87;25805;-59
2021/12/13 02:11:55;;;;;;;4.20;2.85;;;;;;;3.37;84.23;101446.69;1603238;86;26486;-59
2021/12/13 02:14:29;;;;;;;3.65;2.83;;;;;;;3.37;84.34;101448.02;1655231;85;27496;-59
2021/12/13 02:17:12;;;;;;;5.03;3.60;;;;;;;3.40;84.46;101446.07;1647054;85;25895;-59
2021/12/13 02:19:54;;;;;;;4.12;3.05;;;;;;;3.50;84.53;101446.48;1608842;88;25774;-60
2021/12/13 02:22:44;;;;;;;3.92;2.55;;;;;;;3.60;84.72;101450.42;1612697;86;25797;-59
2021/12/13 02:25:34;;;;;;;3.70;2.83;;;;;;;3.54;83.88;101450.73;1634567;85;25950;-60
2021/12/13 02:28:09;;;;;;;4.87;3.42;;;;;;;3.54;83.94;101456.05;1644519;86;27468;-60
2021/12/13 02:30:44;;;;;;;3.98;2.92;;;;;;;3.62;84.10;101449.49;1666436;84;25796;-60
2021/12/13 02:33:16;;;;;;;3.80;3.00;;;;;;;3.64;83.84;101439.16;1663064;84;25778;-59
2021/12/13 02:35:48;;;;;;;3.70;3.17;;;;;;;3.64;83.59;101436.50;1635531;85;25973;-59
2021/12/13 02:38:17;;;;;;;4.53;3.12;;;;;;;3.63;83.24;101444.09;1626058;86;25781;-58
2021/12/13 02:40:45;;;;;;;4.08;3.37;;;;;;;3.58;82.96;101448.78;1672131;84;27470;-59
2021/12/13 02:43:16;;;;;;;3.42;3.00;;;;;;;3.50;83.22;101454.94;1659298;85;25819;-59
2021/12/13 02:45:48;;;;;;;3.70;2.67;;;;;;;3.45;83.53;101446.70;1677858;84;25797;-59
2021/12/13 02:48:32;;;;;;;4.25;3.58;;;;;;;3.48;83.77;101444.84;1663898;85;25878;-59
2021/12/13 02:51:13;;;;;;;4.67;3.33;;;;;;;3.49;83.37;101451.44;1665735;85;25773;-59
2021/12/13 02:53:50;;;;;;;3.25;2.95;;;;;;;3.47;83.64;101457.29;1694570;84;27501;-59
2021/12/13 02:56:22;;;;;;;3.02;2.75;;;;;;;3.48;83.67;101464.78;1674946;85;25648;-60
2021/12/13 02:58:51;;;;;;;4.53;2.75;;;;;;;3.46;83.70;101458.22;1649100;85;25753;-59
2021/12/13 03:01:23;;;;;;;6.08;2.72;;;;;;;3.45;83.43;101454.68;1637591;85;25812;-59
2021/12/13 03:03:55;;;;;;;5.72;3.20;;;;;;;3.31;82.83;101461.61;1638875;85;25860;-59
2021/12/13 03:06:27;;;;;;;6.12;2.80;;;;;;;3.19;82.88;101461.25;1646062;86;28189;-59
2021/12/13 03:09:00;;;;;;;3.35;3.05;;;;;;;3.13;82.98;101465.05;1646509;85;25873;-60
2021/12/13 03:11:32;;;;;;;3.15;2.85;;;;;;;3.04;83.28;101472.12;1655800;84;25803;-59
2021/12/13 03:14:11;;;;;;;3.47;2.87;;;;;;;3.01;83.36;101474.91;1678531;83;26990;-59
2021/12/13 03:16:55;;;;;;;4.50;2.62;;;;;;;3.06;83.59;101471.59;1669462;84;25712;-59
2021/12/13 03:19:42;;;;;;;3.35;3.00;;;;;;;3.11;83.51;101480.20;1616648;86;27559;-60
2021/12/13 03:22:57;;;;;;;4.33;3.27;;;;;;;3.05;82.93;101485.81;1641221;85;25776;-59
2021/12/13 03:25:57;;;;;;;5.00;3.35;;;;;;;2.96;82.86;101492.88;1646875;85;32564;-60
2021/12/13 03:29:02;;;;;;;3.17;2.85;;;;;;;3.01;83.37;101496.17;1638452;86;26505;-59
2021/12/13 03:31:43;;;;;;;3.60;3.17;;;;;;;3.07;83.66;101498.57;1661789;85;25836;-60
2021/12/13 03:34:15;;;;;;;6.08;3.83;;;;;;;3.01;82.65;101507.28;1653472;85;27061;-60
2021/12/13 03:37:12;;;;;;;3.95;2.70;;;;;;;2.91;82.64;101517.48;1668930;84;25883;-59
2021/12/13 03:39:53;;;;;;;5.75;3.98;;;;;;;2.87;83.06;101518.05;1663285;85;26178;-59
2021/12/13 03:42:28;;;;;;;3.02;2.62;;;;;;;2.88;83.18;101523.77;1651552;85;25958;-60
2021/12/13 03:45:00;;;;;;;4.70;3.35;;;;;;;2.84;83.11;101525.30;1649636;84;25478;-59
2021/12/13 03:47:36;;;;;;;3.98;3.12;;;;;;;2.85;83.47;101523.92;1631250;85;27502;-59
2021/12/13 03:50:15;;;;;;;4.53;3.12;;;;;;;2.86;83.22;101530.09;1675449;84;25831;-58
2021/12/13 03:52:46;;;;;;;3.67;2.92;;;;;;;2.88;83.42;101526.42;1668293;85;25782;-59
2021/12/13 03:55:18;;;;;;;3.98;3.20;;;;;;;2.95;83.37;101531.89;1679633;84;25860;-59
2021/12/13 03:57:49;;;;;;;3.20;2.58;;;;;;;2.92;83.09;101531.13;1666000;83;26050;-59
2021/12/13 04:00:21;;;;;;;3.87;3.52;;;;;;;2.88;83.07;101534.87;1667874;83;27592;-59
2021/12/13 04:02:49;;;;;;;3.40;3.10;;;;;;;2.84;82.84;101539.91;1651803;84;25740;-59
2021/12/13 04:05:20;;;;;;;4.60;3.20;;;;;;;2.77;82.74;101541.52;1670724;85;25869;-59
2021/12/13 04:07:53;;;;;;;25.05;14.78;;;;;;;2.66;82.65;101530.03;1648719;85;53557;-58
2021/12/13 04:10:25;;;;;;;4.72;3.45;;;;;;;2.69;83.08;101531.69;1631799;87;25801;-58
2021/12/13 04:12:57;;;;;;;4.97;3.15;;;;;;;2.68;83.03;101526.45;1634186;85;27578;-59
2021/12/13 04:15:48;;;;;;;4.37;3.33;;;;;;;2.63;83.12;101526.17;1631567;87;25937;-59
2021/12/13 04:18:26;;;;;;;4.78;3.62;;;;;;;2.65;83.24;101532.30;1631282;86;25812;-59
2021/12/13 04:20:44;;;;;;;4.05;3.55;;;;;;;2.66;83.19;101532.70;1632971;86;25828;-59
2021/12/13 04:23:19;;;;;;;6.25;4.42;;;;;;;2.71;83.15;101531.17;1637449;84;25892;-59
2021/12/13 04:25:50;;;;;;;6.45;5.37;;;;;;;2.76;82.91;101534.48;1664071;84;27556;-59
2021/12/13 04:28:22;;;;;;;4.80;4.08;;;;;;;2.76;83.10;101535.80;1642998;84;25797;-59
2021/12/13 04:30:59;;;;;;;4.15;3.75;;;;;;;2.79;83.08;101540.11;1645307;84;25772;-59
2021/12/13 04:33:34;;;;;;;3.95;3.55;;;;;;;2.82;82.66;101540.84;1644859;85;25797;-59
2021/12/13 04:36:07;;;;;;;5.03;3.75;;;;;;;2.81;82.60;101537.81;1655498;84;25808;-59
2021/12/13 04:38:51;;;;;;;4.10;3.33;;;;;;;2.84;82.71;101543.90;1659136;84;28176;-59
2021/12/13 04:41:38;;;;;;;4.97;4.17;;;;;;;2.90;82.57;101549.81;1659670;84;27302;-60
2021/12/13 04:44:16;;;;;;;4.92;3.67;;;;;;;2.94;82.67;101555.41;1657734;86;25772;-60
2021/12/13 04:46:49;;;;;;;6.15;4.10;;;;;;;3.02;82.69;101559.04;1659250;84;25885;-60
2021/12/13 04:49:20;;;;;;;5.42;4.22;;;;;;;3.05;82.44;101567.37;1661194;85;25780;-60
2021/12/13 04:52:00;;;;;;;5.72;4.47;;;;;;;3.08;82.56;101557.46;1662582;85;27482;-59
2021/12/13 04:54:31;;;;;;;6.22;4.17;;;;;;;3.15;82.30;101562.49;1664046;85;25897;-60
2021/12/13 04:57:00;;;;;;;5.60;4.10;;;;;;;3.17;82.14;101566.80;1656621;85;25841;-60
2021/12/13 04:59:29;;;;;;;5.15;4.45;;;;;;;3.16;81.77;101557.09;1636027;85;25804;-60
2021/12/13 05:01:59;;;;;;;7.42;4.47;;;;;;;3.15;81.55;101557.17;1629117;84;25848;-60
2021/12/13 05:04:29;;;;;;;5.75;4.53;;;;;;;3.16;81.43;101555.77;1633181;85;27444;-60
2021/12/13 05:07:00;;;;;;;7.55;4.80;;;;;;;3.08;80.97;101551.26;1651127;84;25845;-60
2021/12/13 05:09:29;;;;;;;8.78;5.95;;;;;;;3.04;81.09;101561.66;1613081;86;25833;-60
2021/12/13 05:12:16;;;;;;;7.55;5.35;;;;;;;3.01;81.38;101563.95;1660859;84;25852;-60
2021/12/13 05:14:48;;;;;;;7.03;5.67;;;;;;;3.01;81.34;101569.75;1618005;87;25761;-60
2021/12/13 05:17:20;;;;;;;9.40;6.08;;;;;;;3.03;81.64;101586.50;1667815;85;27499;-59
2021/12/13 05:20:01;;;;;;;7.83;5.95;;;;;;;3.02;81.71;101581.63;1644821;85;25900;-59
2021/12/13 05:22:30;;;;;;;8.03;5.97;;;;;;;3.06;81.56;101580.58;1651268;85;25872;-58
2021/12/13 05:25:01;;;;;;;8.75;5.60;;;;;;;3.07;81.32;101586.30;1658569;85;26481;-59
2021/12/13 05:27:36;;;;;;;8.23;5.75;;;;;;;3.04;81.16;101586.42;1661770;83;25873;-58
2021/12/13 05:30:20;;;;;;;8.95;6.12;;;;;;;3.03;81.25;101594.00;1638185;87;27504;-59
2021/12/13 05:32:51;;;;;;;8.78;6.15;;;;;;;3.02;81.08;101601.57;1621652;86;25857;-59
2021/12/13 05:35:33;;;;;;;9.85;7.17;;;;;;;3.01;80.83;101606.48;1631659;87;25989;-59
2021/12/13 05:38:07;;;;;;;9.13;7.25;;;;;;;3.05;81.24;101605.91;1631589;86;25803;-60
2021/12/13 05:40:41;;;;;;;12.93;8.13;;;;;;;3.14;81.55;101606.81;1629978;86;25840;-60
2021/12/13 05:43:35;;;;;;;8.55;6.20;;;;;;;3.19;81.40;101611.92;1626111;87;27411;-60
2021/12/13 05:46:16;;;;;;;9.85;7.80;;;;;;;3.23;81.23;101613.53;1648681;84;25863;-60
2021/12/13 05:49:00;;;;;;;10.60;6.80;;;;;;;3.21;80.69;101615.39;1661661;84;25781;-60
2021/12/13 05:51:39;;;;;;;13.00;7.78;;;;;;;3.18;80.74;101623.52;1686090;84;26426;-61
2021/12/13 05:54:32;;;;;;;13.88;9.03;;;;;;;3.07;80.39;101623.52;1677312;85;25793;-59
2021/12/13 05:57:13;;;;;;;14.75;9.75;;;;;;;3.05;80.66;101620.53;1634256;86;27486;-59
2021/12/13 06:00:03;;;;;;;13.68;9.38;;;;;;;3.07;80.82;101623.52;1666429;84;25768;-59
2021/12/13 06:02:54;;;;;;;14.43;10.18;;;;;;;3.07;80.80;101610.23;1629110;84;25829;-59
2021/12/13 06:05:25;;;;;;;13.85;8.88;;;;;;;2.99;80.53;101613.69;1659582;85;26646;-60
2021/12/13 06:08:07;;;;;;;15.15;10.10;;;;;;;2.96;80.70;101612.48;1656017;85;25880;-60
2021/12/13 06:10:48;;;;;;;12.65;9.00;;;;;;;2.90;80.37;101622.91;1653498;85;27509;-60
2021/12/13 06:13:50;;;;;;;13.83;9.18;;;;;;;2.78;80.46;101611.01;1624814;86;25780;-61
2021/12/13 06:16:25;;;;;;;14.28;9.90;;;;;;;2.78;80.51;101608.83;1676398;84;25506;-61
2021/12/13 06:19:17;;;;;;;17.07;10.32;;;;;;;2.79;80.89;101609.20;1664407;85;25984;-60
2021/12/13 06:21:56;;;;;;;15.60;9.68;;;;;;;2.80;80.93;101602.52;1603314;87;25776;-60
2021/12/13 06:24:36;;;;;;;15.98;9.80;;;;;;;2.78;80.78;101608.35;1624177;86;28330;-61
2021/12/13 06:27:28;;;;;;;16.95;10.78;;;;;;;2.68;80.51;101615.45;1617476;86;26143;-60
2021/12/13 06:30:13;;;;;;;20.43;11.12;;;;;;;2.70;80.72;101617.11;1618042;87;25965;-60
2021/12/13 06:32:57;;;;;;;19.85;11.22;;;;;;;2.76;81.12;101616.00;1633649;86;26542;-60
2021/12/13 06:35:48;;;;;;;22.20;11.65;;;;;;;2.80;80.61;101617.58;1633649;86;26192;-60
2021/12/13 06:38:26;;;;;;;21.70;12.78;;;;;;;2.71;79.96;101620.63;1648404;85;27579;-60
2021/12/13 06:41:01;;;;;;;19.90;12.43;;;;;;;2.66;80.19;101638.97;1652781;85;25795;-60
2021/12/13 06:43:36;;;;;;;20.52;12.18;;;;;;;2.63;80.15;101647.05;1648909;85;25833;-60
2021/12/13 06:46:23;;;;;;;22.45;13.43;;;;;;;2.64;80.26;101643.95;1655720;84;25773;-60
2021/12/13 06:49:04;;;;;;;25.02;14.60;;;;;;;2.66;80.28;101647.38;1651319;85;26050;-60
2021/12/13 06:51:51;;;;;;;25.45;13.80;;;;;;;2.70;80.43;101638.38;1661705;85;27506;-58
2021/12/13 06:54:26;;;;;;;27.80;16.25;;;;;;;2.76;80.73;101642.09;1659148;84;25836;-58
2021/12/13 06:57:01;;;;;;;31.57;15.90;;;;;;;2.78;80.20;101647.36;1632913;86;25893;-58
2021/12/13 06:59:32;;;;;;;30.57;15.83;;;;;;;2.80;80.35;101650.34;1642499;85;26498;-58
2021/12/13 07:02:15;;;;;;;27.95;15.80;;;;;;;2.84;80.25;101671.02;1621672;86;25769;-58
2021/12/13 07:04:53;;;;;;;29.12;15.78;;;;;;;2.77;79.90;101671.72;1651877;85;27525;-58
2021/12/13 07:07:25;;;;;;;39.88;15.45;;;;;;;2.78;80.03;101674.78;1643405;84;25776;-59
2021/12/13 07:09:57;;;;;;;32.23;16.10;;;;;;;2.76;79.58;101669.14;1689415;84;25838;-58
2021/12/13 07:12:28;;;;;;;31.95;15.85;;;;;;;2.75;79.98;101659.44;1676838;84;26237;-59
2021/12/13 07:14:55;;;;;;;30.52;16.50;;;;;;;2.73;79.30;101663.50;1653006;86;25849;-58
2021/12/13 07:17:29;;;;;;;30.55;16.97;;;;;;;2.68;79.49;101672.10;1671263;83;27477;-59
2021/12/13 07:19:56;;;;;;;;;;;;;;;2.72;79.91;101676.38;1641153;87;25915;-58
2021/12/13 07:22:27;;;;;;;28.85;15.23;;;;;;;2.69;79.15;101685.79;1639106;87;25679;-59
2021/12/13 07:25:15;;;;;;;29.98;16.60;;;;;;;2.72;79.64;101680.81;1652849;84;25879;-59
2021/12/13 07:27:47;;;;;;;25.72;16.35;;;;;;;2.71;79.38;101680.41;1670231;84;26758;-59
2021/12/13 07:30:22;;;;;;;37.03;20.00;;;;;;;2.67;79.10;101691.63;1679732;84;27609;-59
2021/12/13 07:32:57;;;;;;;44.13;22.62;;;;;;;2.54;78.69;101687.27;1665459;84;25757;-58
2021/12/13 07:35:41;;;;;;;;;;;;;;;2.48;79.08;101692.36;1651418;85;25540;-58
2021/12/13 07:38:20;;;;;;;36.65;18.17;;;;;;;2.44;79.00;101693.88;1646812;85;25794;-58
2021/12/13 07:40:55;;;;;;;34.00;18.82;;;;;;;2.38;78.92;101705.59;1651933;85;25737;-58
2021/12/13 07:43:45;;;;;;;30.62;18.17;;;;;;;2.34;78.67;101710.64;1660880;85;28168;-59
2021/12/13 07:46:24;;;;;;;32.58;17.20;;;;;;;2.28;78.96;101715.73;1640306;86;25836;-58
2021/12/13 07:48:59;;;;;;;35.43;18.82;;;;;;;2.24;79.04;101718.08;1641837;85;25512;-59
2021/12/13 07:51:32;;;;;;;35.90;18.80;;;;;;;2.20;79.00;101709.85;1634000;85;26896;-59
2021/12/13 07:54:04;;;;;;;37.50;17.50;;;;;;;2.23;79.25;101704.43;1641920;85;25773;-59
2021/12/13 07:56:45;;;;;;;36.33;18.17;;;;;;;2.24;79.29;101711.45;1666720;84;27479;-59
2021/12/13 07:59:32;;;;;;;36.05;19.00;;;;;;;2.31;79.66;101709.42;1646376;84;25872;-58
2021/12/13 08:02:08;;;;;;;28.47;17.23;;;;;;;2.39;79.51;101709.98;1621555;86;25759;-59
2021/12/13 08:05:01;;;;;;;31.68;17.05;;;;;;;2.44;79.24;101708.48;1652450;84;26429;-59
2021/12/13 08:07:50;;;;;;;30.37;17.20;;;;;;;2.53;79.32;101712.58;1665127;84;25756;-58
2021/12/13 08:10:37;;;;;;;34.38;18.73;;;;;;;2.59;79.20;101704.36;1660772;84;27490;-58
2021/12/13 08:13:18;;;;;;;34.20;18.15;;;;;;;2.68;78.89;101703.98;1647230;85;25784;-58
2021/12/13 08:15:50;;;;;;;30.48;17.23;;;;;;;2.70;78.28;101703.47;1647243;85;25666;-58
2021/12/13 08:18:30;;;;;;;36.63;17.62;;;;;;;2.70;78.29;101696.83;1662055;85;25896;-58
2021/12/13 08:21:02;;;;;;;34.38;17.23;;;;;;;2.71;77.97;101693.24;1621649;86;25890;-58
2021/12/13 08:23:40;;;;;;;30.57;17.15;;;;;;;2.81;78.44;101683.09;1643605;85;27470;-58
2021/12/13 08:26:12;;;;;;;30.52;17.55;;;;;;;2.87;78.43;101690.80;1657635;84;25708;-58
2021/12/13 08:28:44;;;;;;;31.80;16.57;;;;;;;2.93;77.91;101692.34;1662514;84;25823;-58
2021/12/13 08:31:22;;;;;;;36.70;19.60;;;;;;;2.95;77.55;101703.78;1664314;84;25747;-59
2021/12/13 08:33:54;;;;;;;34.73;18.65;;;;;;;2.86;76.87;101702.38;1645521;85;25729;-58
2021/12/13 08:36:35;;;;;;;32.38;18.37;;;;;;;2.88;77.55;101700.98;1654666;85;28168;-59
2021/12/13 08:39:28;;;;;;;29.70;17.85;;;;;;;2.91;77.73;101698.20;1653990;84;25896;-57
2021/12/13 08:42:00;;;;;;;39.25;17.73;;;;;;;2.92;77.04;101703.45;1657389;85;25864;-58
2021/12/13 08:45:03;;;;;;;35.35;19.73;;;;;;;2.89;76.97;101694.73;1657675;84;25840;-59
2021/12/13 08:47:41;;;;;;;37.83;21.45;;;;;;;2.90;77.19;101694.67;1655627;85;25819;-59
2021/12/13 08:50:14;;;;;;;33.98;18.77;;;;;;;2.80;76.77;101691.98;1656124;84;26962;-59
2021/12/13 08:52:45;;;;;;;42.62;19.70;;;;;;;2.65;76.64;101685.05;1661677;85;25720;-59
2021/12/13 08:55:32;;;;;;;31.90;17.25;;;;;;;2.60;77.13;101686.16;1675286;83;25768;-58
2021/12/13 08:58:12;;;;;;;41.18;19.10;;;;;;;2.52;76.94;101685.13;1668434;85;25909;-58
2021/12/13 09:00:47;;;;;;;36.42;18.40;;;;;;;2.50;77.44;101677.23;1616388;87;26252;-58
2021/12/13 09:03:31;;;;;;;32.55;16.80;;;;;;;2.50;77.34;101670.59;1671121;84;28182;-58
2021/12/13 09:06:04;;;;;;;;;;;;;;;2.52;77.00;101671.00;1661330;85;25774;-59
2021/12/13 09:08:51;;;;;;;43.55;21.42;;;;;;;2.45;77.07;101669.93;1650316;85;25817;-59
2021/12/13 09:11:27;;;;;;;34.20;17.50;;;;;;;2.39;76.67;101667.98;1659743;85;25860;-59
2021/12/13 09:14:37;;;;;;;34.40;18.60;;;;;;;2.40;76.86;101666.58;1680629;84;26368;-59
2021/12/13 09:17:22;;;;;;;33.40;17.32;;;;;;;2.39;77.00;101675.94;1680918;84;27477;-59
2021/12/13 09:19:54;;;;;;;28.45;17.87;;;;;;;2.40;77.15;101670.56;1650018;84;26578;-58
2021/12/13 09:22:26;;;;;;;28.98;16.90;;;;;;;2.47;76.83;101665.40;1644750;84;25829;-58
2021/12/13 09:25:16;;;;;;;34.70;17.23;;;;;;;2.52;76.44;101665.69;1671984;84;25813;-58
2021/12/13 09:27:51;;;;;;;32.60;18.07;;;;;;;2.55;76.52;101671.73;1628972;87;26795;-58
2021/12/13 09:30:29;;;;;;;31.65;18.70;;;;;;;2.61;76.56;101667.50;1676531;83;27491;-59
2021/12/13 09:33:22;;;;;;;29.65;16.17;;;;;;;2.71;76.61;101677.30;1645927;85;25846;-58
2021/12/13 09:36:12;;;;;;;34.78;19.23;;;;;;;2.80;76.78;101680.02;1663624;84;25651;-59
2021/12/13 09:38:58;;;;;;;35.43;18.60;;;;;;;2.86;75.96;101686.44;1660130;83;25806;-59
2021/12/13 09:41:45;;;;;;;50.00;19.07;;;;;;;2.78;75.95;101679.25;1645737;86;25738;-58
2021/12/13 09:44:18;;;;;;;45.92;19.30;;;;;;;2.76;76.02;101676.63;1653839;86;27548;-59
2021/12/13 09:47:15;;;;;;;33.70;18.20;;;;;;;2.79;75.93;101675.19;1645581;85;25833;-59
2021/12/13 09:49:59;;;;;;;32.53;17.45;;;;;;;2.87;76.25;101680.16;1652293;84;25826;-59
2021/12/13 09:52:34;;;;;;;30.43;17.82;;;;;;;2.93;75.77;101679.05;1653755;85;25823;-59
2021/12/13 09:55:19;;;;;;;30.02;15.95;;;;;;;3.02;75.71;101680.47;1648535;85;25823;-59
2021/12/13 09:58:04;;;;;;;;;;;;;;;3.06;75.75;101680.27;1660292;85;28239;-58
2021/12/13 10:00:48;;;;;;;32.85;16.55;;;;;;;3.02;74.43;101681.80;1662300;84;25786;-59
2021/12/13 10:03:26;;;;;;;31.95;17.67;;;;;;;2.97;75.05;101670.03;1657233;85;25819;-59
2021/12/13 10:06:01;;;;;;;35.63;17.57;;;;;;;3.01;75.45;101674.75;1648905;84;25965;-58
2021/12/13 10:08:55;;;;;;;40.08;18.37;;;;;;;2.97;74.84;101674.02;1647714;85;25828;-58
2021/12/13 10:11:39;;;;;;;34.25;17.00;;;;;;;2.90;74.91;101672.55;1610096;87;27459;-59
2021/12/13 10:14:10;;;;;;;37.83;19.87;;;;;;;2.80;74.75;101670.28;1637277;85;25963;-59
2021/12/13 10:16:41;;;;;;;29.65;15.98;;;;;;;2.77;74.72;101671.72;1654912;85;25759;-59
2021/12/13 10:19:13;;;;;;;30.32;17.17;;;;;;;2.79;75.08;101663.23;1639847;85;25831;-59
2021/12/13 10:21:44;;;;;;;32.40;16.95;;;;;;;2.77;74.89;101667.73;1649689;84;25763;-59
2021/12/13 10:24:21;;;;;;;35.68;17.62;;;;;;;2.81;74.85;101668.03;1642794;85;27556;-59
2021/12/13 10:26:51;;;;;;;29.98;15.93;;;;;;;2.81;74.68;101660.05;1643583;85;25770;-58
2021/12/13 10:29:20;;;;;;;31.52;17.90;;;;;;;2.86;74.82;101653.66;1649889;85;25846;-59
2021/12/13 10:31:58;;;;;;;33.10;17.60;;;;;;;2.91;74.84;101661.00;1643743;85;26357;-58
2021/12/13 10:34:32;;;;;;;30.02;17.40;;;;;;;2.98;75.33;101663.79;1671676;84;25840;-58
2021/12/13 10:37:10;;;;;;;38.73;19.35;;;;;;;3.07;75.32;101657.20;1687681;84;28170;-59
2021/12/13 10:39:45;;;;;;;35.35;17.57;;;;;;;3.05;75.03;101649.30;1688197;84;25779;-58
2021/12/13 10:42:20;;;;;;;33.28;18.55;;;;;;;3.06;75.13;101642.17;1680642;83;25688;-58
2021/12/13 10:44:48;;;;;;;37.10;18.75;;;;;;;3.07;74.87;101645.23;1675750;83;25806;-59
2021/12/13 10:47:32;;;;;;;29.85;17.25;;;;;;;3.08;75.18;101640.32;1650098;86;25756;-58
2021/12/13 10:50:05;;;;;;;33.30;17.10;;;;;;;3.11;75.05;101651.69;1648141;85;27540;-59
2021/12/13 10:52:37;;;;;;;31.07;18.20;;;;;;;3.10;74.35;101651.77;1667690;84;25935;-58
2021/12/13 10:55:12;;;;;;;33.40;18.82;;;;;;;3.08;74.93;101661.59;1664265;85;25859;-58
2021/12/13 10:57:44;;;;;;;37.70;19.70;;;;;;;3.06;74.87;101657.68;1685750;84;25776;-58
2021/12/13 11:00:17;;;;;;;39.15;19.62;;;;;;;3.01;74.42;101673.42;1641655;85;25779;-58
2021/12/13 11:02:45;;;;;;;38.23;19.20;;;;;;;2.90;74.70;101680.05;1631292;85;28320;-58
2021/12/13 11:05:16;;;;;;;36.50;20.35;;;;;;;2.88;74.74;101681.05;1677785;84;25900;-58
2021/12/13 11:07:46;;;;;;;37.83;18.92;;;;;;;2.86;74.92;101684.23;1652494;85;25920;-58
2021/12/13 11:10:19;;;;;;;38.08;20.23;;;;;;;2.88;75.23;101685.03;1653164;85;26439;-58
2021/12/13 11:12:51;;;;;;;40.25;21.17;;;;;;;2.91;75.25;101679.60;1666094;84;26112;-58
2021/12/13 11:15:25;;;;;;;42.27;21.27;;;;;;;2.91;74.99;101678.27;1658084;84;28309;-58
2021/12/13 11:17:55;;;;;;;35.73;20.17;;;;;;;2.90;74.87;101673.41;1652134;85;25747;-58
2021/12/13 11:20:33;;;;;;;34.30;19.87;;;;;;;2.86;74.64;101674.48;1666542;84;25877;-58
2021/12/13 11:23:01;;;;;;;36.60;19.30;;;;;;;2.83;74.56;101674.59;1671139;84;25899;-58
2021/12/13 11:25:33;;;;;;;39.05;18.48;;;;;;;2.89;74.68;101670.82;1685708;84;25776;-58
2021/12/13 11:28:02;;;;;;;41.28;20.85;;;;;;;2.94;74.30;101672.81;1680471;84;28188;-59
2021/12/13 11:30:35;;;;;;;38.20;19.25;;;;;;;2.87;73.47;101682.83;1665918;84;25820;-59
2021/12/13 11:33:22;;;;;;;46.33;20.50;;;;;;;2.75;73.76;101679.36;1667685;84;25860;-59
2021/12/13 11:35:53;;;;;;;35.57;19.27;;;;;;;2.70;73.93;101674.23;1663049;85;26103;-59
2021/12/13 11:38:49;;;;;;;33.50;18.17;;;;;;;2.75;74.26;101684.20;1651455;85;25811;-59
2021/12/13 11:41:56;;;;;;;33.00;18.52;;;;;;;2.81;74.62;101687.08;1655385;85;29100;-59
2021/12/13 11:44:40;;;;;;;36.35;17.40;;;;;;;2.88;74.53;101695.19;1656089;85;25718;-58
2021/12/13 11:47:39;;;;;;;26.60;15.32;;;;;;;3.00;74.78;101692.95;1643238;85;25809;-58
2021/12/13 11:50:33;;;;;;;32.65;17.40;;;;;;;3.08;74.37;101681.08;1662022;84;25831;-59
2021/12/13 11:53:43;;;;;;;35.13;18.98;;;;;;;3.19;74.92;101692.58;1664707;84;25705;-59
2021/12/13 11:56:47;;;;;;;32.55;18.80;;;;;;;3.29;74.80;101689.92;1653307;85;27498;-59
2021/12/13 11:59:54;;;;;;;37.17;21.40;;;;;;;3.37;73.85;101692.71;1584660;87;25843;-59
2021/12/13 12:02:30;;;;;;;42.25;21.00;;;;;;;3.32;73.81;101690.25;1655178;85;25574;-59
2021/12/13 12:05:46;;;;;;;36.20;19.55;;;;;;;3.23;73.44;101686.66;1661055;84;25929;-59
2021/12/13 12:09:08;;;;;;;40.15;21.02;;;;;;;3.23;73.44;101687.99;1678626;83;25789;-58
2021/12/13 12:12:26;;;;;;;37.13;18.82;;;;;;;3.19;73.48;101686.38;1657417;85;27503;-59
2021/12/13 12:15:00;;;;;;;35.13;18.90;;;;;;;3.09;73.28;101679.27;1660462;85;25863;-59
2021/12/13 12:17:24;;;;;;;33.73;18.90;;;;;;;3.07;73.47;101679.34;1646500;84;25824;-59
2021/12/13 12:19:51;;;;;;;39.00;20.65;;;;;;;3.00;73.25;101687.64;1636663;85;26456;-59